Time;durP1;ratioP1;P1;durP2;ratioP2;P2;SDS_P1;SDS_P2;PMS_P1;PMS_P2;Temp;Humidity;BMP_temperature;BMP_pressure;BME280_temperature;BME280_humidity;BME280_pressure;Samples;Min_cycle;Max_cycle;Signal;HPM_P1;HPM_P2
2022/03/06 00:02:14;;;;;;;36.03;21.07;;;;;;;;;;2616550;47;20491;-80
2022/03/06 00:04:41;;;;;;;36.57;20.90;;;0.30;99.90;;;;;;2615118;54;20403;-80
2022/03/06 00:07:09;;;;;;;37.03;22.37;;;0.30;99.90;;;;;;2617224;54;20403;-81
2022/03/06 00:09:35;;;;;;;33.13;17.87;;;;;;;;;;2616795;54;20410;-80
2022/03/06 00:12:02;;;;;;;36.60;20.30;;;0.20;99.90;;;;;;2616956;47;20427;-80
2022/03/06 00:14:28;;;;;;;37.33;22.80;;;0.40;99.90;;;;;;2615801;47;20405;-79
2022/03/06 00:16:55;;;;;;;42.43;22.17;;;0.30;99.90;;;;;;2616885;54;20415;-81
2022/03/06 00:19:21;;;;;;;41.90;21.20;;;0.80;99.90;;;;;;2617410;47;20170;-80
2022/03/06 00:21:48;;;;;;;40.13;22.53;;;0.10;99.90;;;;;;2616604;48;20440;-79
2022/03/06 00:24:16;;;;;;;42.57;22.47;;;0.30;99.90;;;;;;2616786;54;20139;-80
2022/03/06 00:26:43;;;;;;;36.53;18.37;;;0.40;99.90;;;;;;2617501;47;20490;-80
2022/03/06 00:29:09;;;;;;;32.13;19.93;;;1.40;99.90;;;;;;2617710;54;20407;-80
2022/03/06 00:31:35;;;;;;;39.37;17.83;;;;;;;;;;2616811;47;21086;-81
2022/03/06 00:34:01;;;;;;;34.97;20.60;;;0.30;99.90;;;;;;2616682;47;20427;-80
2022/03/06 00:36:27;;;;;;;35.60;18.10;;;0.30;99.90;;;;;;2618011;47;20415;-82
2022/03/06 00:38:53;;;;;;;27.93;17.70;;;0.30;99.90;;;;;;2616024;54;20969;-79
2022/03/06 00:41:19;;;;;;;34.23;21.30;;;0.20;99.90;;;;;;2616326;47;20166;-79
2022/03/06 00:43:45;;;;;;;36.80;19.37;;;0.10;99.90;;;;;;2617373;54;20415;-79
2022/03/06 00:46:10;;;;;;;39.63;21.37;;;0.20;99.90;;;;;;2617156;31;20806;-80
2022/03/06 00:48:36;;;;;;;43.53;22.67;;;0.20;99.90;;;;;;2616377;47;20420;-79
2022/03/06 00:51:02;;;;;;;30.30;17.57;;;0.10;99.90;;;;;;2617116;47;20166;-80
2022/03/06 00:53:28;;;;;;;32.33;19.60;;;0.20;99.90;;;;;;2615695;47;20391;-79
2022/03/06 00:55:54;;;;;;;32.33;20.23;;;0.30;99.90;;;;;;2616261;47;20418;-79
2022/03/06 00:58:20;;;;;;;36.00;19.97;;;0.20;99.90;;;;;;2615870;54;20163;-80
2022/03/06 01:01:10;;;;;;;37.80;22.50;;;0.10;99.90;;;;;;2616878;47;20177;-79
2022/03/06 01:03:37;;;;;;;33.53;18.07;;;0.20;99.90;;;;;;2616375;54;20435;-79
2022/03/06 01:06:03;;;;;;;33.07;19.10;;;0.30;99.90;;;;;;2616425;54;20411;-80
2022/03/06 01:08:29;;;;;;;32.93;20.70;;;0.10;99.90;;;;;;2615255;54;20423;-78
2022/03/06 01:10:55;;;;;;;38.93;21.27;;;0.10;99.90;;;;;;2616235;47;20433;-79
2022/03/06 01:13:22;;;;;;;41.30;20.20;;;0.10;99.90;;;;;;2614970;47;20232;-80
2022/03/06 01:15:49;;;;;;;39.73;21.70;;;0.10;99.90;;;;;;2616269;47;20407;-80
2022/03/06 01:18:44;;;;;;;39.03;19.77;;;0.00;99.90;;;;;;2615953;54;20511;-80
2022/03/06 01:21:12;;;;;;;33.77;17.77;;;-0.10;99.90;;;;;;2615462;54;20431;-79
2022/03/06 01:24:06;;;;;;;38.40;21.90;;;-0.10;99.90;;;;;;2615511;54;20415;-81
2022/03/06 01:26:33;;;;;;;31.20;18.57;;;0.00;99.90;;;;;;2617089;31;20975;-79
2022/03/06 01:29:01;;;;;;;32.33;18.07;;;0.10;99.90;;;;;;2614938;54;21049;-80
2022/03/06 01:31:52;;;;;;;28.73;19.40;;;0.00;99.90;;;;;;2615740;47;20415;-80
2022/03/06 01:34:20;;;;;;;34.90;19.80;;;0.00;99.90;;;;;;2615064;54;20412;-80
2022/03/06 01:36:47;;;;;;;38.17;18.00;;;0.10;99.90;;;;;;2615556;47;20424;-80
2022/03/06 01:39:13;;;;;;;29.87;17.50;;;0.10;99.90;;;;;;2615407;54;20378;-82
2022/03/06 01:42:15;;;;;;;39.50;19.20;;;0.10;99.90;;;;;;2615246;54;20379;-80
2022/03/06 01:44:51;;;;;;;34.67;18.67;;;0.20;99.90;;;;;;2616180;47;20629;-80
2022/03/06 01:47:40;;;;;;;29.40;16.30;;;0.50;99.90;;;;;;2615501;54;20407;-80
2022/03/06 01:50:28;;;;;;;27.73;14.93;;;0.20;99.90;;;;;;2615911;54;20426;-81
2022/03/06 01:52:58;;;;;;;34.77;16.97;;;0.20;99.90;;;;;;2616130;54;20478;-80
2022/03/06 01:55:25;;;;;;;27.47;18.90;;;0.20;99.90;;;;;;2615309;47;20928;-80
2022/03/06 01:58:17;;;;;;;27.53;16.37;;;0.30;99.90;;;;;;2615213;47;20426;-80
2022/03/06 02:00:48;;;;;;;44.93;20.10;;;0.30;99.90;;;;;;2615539;54;20408;-81
2022/03/06 02:03:14;;;;;;;30.13;18.63;;;0.40;99.90;;;;;;2616310;39;21698;-79
2022/03/06 02:05:41;;;;;;;43.23;19.40;;;0.40;99.90;;;;;;2616518;54;20486;-80
2022/03/06 02:08:07;;;;;;;32.90;19.47;;;0.40;99.90;;;;;;2615139;54;20417;-80
2022/03/06 02:10:33;;;;;;;29.17;18.70;;;0.30;99.90;;;;;;2615885;47;20411;-79
2022/03/06 02:12:59;;;;;;;37.33;21.27;;;0.30;99.90;;;;;;2615020;47;20425;-79
2022/03/06 02:15:26;;;;;;;34.97;19.10;;;0.30;99.90;;;;;;2615697;39;21391;-79
2022/03/06 02:17:51;;;;;;;37.70;19.90;;;0.40;99.90;;;;;;2615038;54;20941;-80
2022/03/06 02:20:20;;;;;;;31.30;17.40;;;0.40;99.90;;;;;;2615828;54;20436;-81
2022/03/06 02:22:50;;;;;;;32.20;17.60;;;0.10;99.90;;;;;;2615232;47;20445;-80
2022/03/06 02:25:22;;;;;;;29.37;18.57;;;0.40;99.90;;;;;;2615884;54;20437;-80
2022/03/06 02:27:49;;;;;;;38.13;18.67;;;0.20;99.90;;;;;;2614490;54;20420;-81
2022/03/06 02:30:22;;;;;;;28.63;17.00;;;0.10;99.90;;;;;;2616167;39;20768;-80
2022/03/06 02:32:51;;;;;;;27.10;17.00;;;0.10;99.90;;;;;;2614965;47;20937;-81
2022/03/06 02:35:17;;;;;;;25.00;16.33;;;0.10;99.90;;;;;;2615296;39;20830;-81
2022/03/06 02:37:44;;;;;;;27.93;16.63;;;-0.30;99.90;;;;;;2616475;47;20394;-80
2022/03/06 02:40:11;;;;;;;33.03;18.80;;;-0.20;99.90;;;;;;2616192;47;20409;-79
2022/03/06 02:42:39;;;;;;;33.50;18.20;;;-0.20;99.90;;;;;;2617110;47;20395;-79
2022/03/06 02:45:10;;;;;;;26.40;16.03;;;-0.20;99.90;;;;;;2617282;47;20952;-79
2022/03/06 02:47:36;;;;;;;32.30;19.23;;;-0.20;99.90;;;;;;2615354;54;20986;-80
2022/03/06 02:50:05;;;;;;;30.83;18.83;;;-0.20;99.90;;;;;;2617455;54;20423;-81
2022/03/06 02:52:30;;;;;;;32.03;21.13;;;-0.30;99.90;;;;;;2617212;47;20950;-80
2022/03/06 02:54:57;;;;;;;30.07;19.13;;;-0.40;99.90;;;;;;2616865;54;20449;-79
2022/03/06 02:57:22;;;;;;;32.10;17.97;;;-0.40;99.90;;;;;;2615580;54;20158;-79
2022/03/06 02:59:49;;;;;;;34.43;16.70;;;-0.50;99.90;;;;;;2615628;54;20412;-80
2022/03/06 03:02:15;;;;;;;35.13;17.87;;;-0.50;99.90;;;;;;2615988;54;20143;-78
2022/03/06 03:04:41;;;;;;;33.90;19.20;;;-0.50;99.90;;;;;;2617252;39;20827;-78
2022/03/06 03:07:09;;;;;;;32.33;20.50;;;-0.50;99.90;;;;;;2616479;54;20159;-81
2022/03/06 03:09:36;;;;;;;38.20;20.97;;;-0.60;99.90;;;;;;2615999;54;20491;-79
2022/03/06 03:12:02;;;;;;;32.37;20.60;;;-0.60;99.90;;;;;;2617331;54;20446;-80
2022/03/06 03:14:31;;;;;;;37.73;20.00;;;-0.70;99.90;;;;;;2617349;47;20439;-80
2022/03/06 03:16:58;;;;;;;39.20;21.10;;;-0.70;99.90;;;;;;2616609;47;20391;-80
2022/03/06 03:19:24;;;;;;;34.10;19.73;;;;;;;;;;2616762;47;20523;-84
2022/03/06 03:21:50;;;;;;;32.83;20.70;;;-0.90;99.90;;;;;;2617258;39;20763;-82
2022/03/06 03:24:17;;;;;;;35.70;21.33;;;-0.80;99.90;;;;;;2617063;54;20403;-82
2022/03/06 03:26:43;;;;;;;41.50;21.37;;;-0.80;99.90;;;;;;2617296;47;20166;-80
2022/03/06 03:29:09;;;;;;;34.00;21.03;;;-0.90;99.90;;;;;;2615263;54;20395;-81
2022/03/06 03:31:35;;;;;;;33.13;21.97;;;-0.90;99.90;;;;;;2616974;54;20154;-80
2022/03/06 03:34:01;;;;;;;36.57;20.50;;;-1.00;99.90;;;;;;2617597;47;20455;-81
2022/03/06 03:36:27;;;;;;;35.27;22.80;;;-0.80;99.90;;;;;;2617342;47;20411;-80
2022/03/06 03:38:53;;;;;;;35.53;21.40;;;-0.70;99.90;;;;;;2616285;47;20405;-82
2022/03/06 03:41:19;;;;;;;39.67;21.43;;;-0.70;99.90;;;;;;2616586;47;20245;-80
2022/03/06 03:43:45;;;;;;;40.37;21.83;;;-0.60;99.90;;;;;;2616836;39;20575;-82
2022/03/06 03:46:11;;;;;;;37.73;22.70;;;-0.50;99.90;;;;;;2616054;47;20809;-80
2022/03/06 03:48:38;;;;;;;37.17;24.03;;;-0.50;99.90;;;;;;2615182;47;20733;-80
2022/03/06 03:51:04;;;;;;;36.00;21.13;;;;;;;;;;2617434;47;20423;-80
2022/03/06 03:53:30;;;;;;;36.17;21.27;;;;;;;;;;2617379;39;20791;-81
2022/03/06 03:55:56;;;;;;;32.70;20.67;;;-0.60;99.90;;;;;;2617609;54;20444;-80
2022/03/06 03:58:23;;;;;;;34.40;24.23;;;-0.70;99.90;;;;;;2615631;48;20411;-81
2022/03/06 04:00:57;;;;;;;36.30;23.33;;;-0.80;99.90;;;;;;2616853;47;20194;-82
2022/03/06 04:03:24;;;;;;;33.40;22.00;;;-0.60;99.90;;;;;;2617286;54;20410;-81
2022/03/06 04:05:51;;;;;;;31.80;21.83;;;-0.60;99.90;;;;;;2617008;47;20572;-81
2022/03/06 04:08:17;;;;;;;35.50;22.40;;;-0.50;99.90;;;;;;2616340;54;20423;-82
2022/03/06 04:10:43;;;;;;;34.00;21.50;;;-0.40;99.90;;;;;;2616899;47;20395;-81
2022/03/06 04:13:09;;;;;;;32.03;18.67;;;;;;;;;;2614886;54;20435;-82
2022/03/06 04:15:35;;;;;;;33.37;19.07;;;-0.30;99.90;;;;;;2617824;39;20785;-81
2022/03/06 04:18:03;;;;;;;35.73;22.00;;;-0.30;99.90;;;;;;2616726;54;20435;-82
2022/03/06 04:20:30;;;;;;;33.03;19.83;;;-0.40;99.90;;;;;;2616614;47;20683;-82
2022/03/06 04:22:56;;;;;;;32.10;19.50;;;-0.50;99.90;;;;;;2614973;47;20439;-81
2022/03/06 04:25:22;;;;;;;30.00;20.60;;;-0.40;99.90;;;;;;2616158;47;20411;-82
2022/03/06 04:27:48;;;;;;;34.50;21.90;;;-0.20;99.90;;;;;;2616369;51;20463;-80
2022/03/06 04:30:15;;;;;;;35.37;21.93;;;-0.20;99.90;;;;;;2616766;47;20892;-80
2022/03/06 04:32:41;;;;;;;37.27;20.87;;;-0.10;99.90;;;;;;2616454;51;20416;-81
2022/03/06 04:35:07;;;;;;;35.47;22.60;;;-0.10;99.90;;;;;;2617576;54;20506;-81
2022/03/06 04:37:33;;;;;;;34.70;20.37;;;-0.10;99.90;;;;;;2618153;39;20662;-82
2022/03/06 04:39:59;;;;;;;34.70;21.00;;;-0.10;99.90;;;;;;2616559;47;20410;-80
2022/03/06 04:42:25;;;;;;;30.40;20.70;;;-0.10;99.90;;;;;;2617098;47;20421;-83
2022/03/06 04:44:51;;;;;;;36.67;19.50;;;0.00;99.90;;;;;;2616054;47;20458;-80
2022/03/06 04:47:16;;;;;;;36.37;22.37;;;0.00;99.90;;;;;;2616657;54;20170;-80
2022/03/06 04:49:44;;;;;;;30.10;19.60;;;0.00;99.90;;;;;;2617788;39;20560;-81
2022/03/06 04:52:10;;;;;;;28.57;19.03;;;0.00;99.90;;;;;;2617743;39;20590;-81
2022/03/06 04:54:36;;;;;;;34.00;20.60;;;-0.10;99.90;;;;;;2615554;47;20410;-81
2022/03/06 04:57:02;;;;;;;36.60;19.97;;;-0.10;99.90;;;;;;2616909;47;20199;-81
2022/03/06 04:59:28;;;;;;;32.23;20.87;;;-0.20;99.90;;;;;;2616077;47;20174;-81
2022/03/06 05:01:55;;;;;;;31.30;19.30;;;-0.20;99.90;;;;;;2617300;47;20406;-80
2022/03/06 05:04:22;;;;;;;30.90;19.47;;;-0.20;99.90;;;;;;2616043;54;20455;-81
2022/03/06 05:06:48;;;;;;;37.70;18.90;;;-0.20;99.90;;;;;;2617120;47;20440;-83
2022/03/06 05:09:14;;;;;;;31.13;18.47;;;-0.20;99.90;;;;;;2616366;54;20395;-81
2022/03/06 05:11:42;;;;;;;30.47;19.70;;;-0.30;99.90;;;;;;2617249;47;20170;-81
2022/03/06 05:14:32;;;;;;;30.33;18.83;;;-0.30;99.90;;;;;;2615685;51;20407;-81
2022/03/06 05:16:58;;;;;;;26.90;17.80;;;-0.30;99.90;;;;;;2615482;47;20448;-81
2022/03/06 05:19:24;;;;;;;28.43;20.37;;;-0.30;99.90;;;;;;2615915;54;20403;-81
2022/03/06 05:21:52;;;;;;;30.10;18.50;;;-0.30;99.90;;;;;;2615415;54;20279;-80
2022/03/06 05:24:18;;;;;;;26.00;18.10;;;-0.40;99.90;;;;;;2615077;39;20592;-81
2022/03/06 05:26:44;;;;;;;26.67;16.47;;;-0.40;99.90;;;;;;2615463;47;20391;-81
2022/03/06 05:29:09;;;;;;;30.70;18.40;;;-0.50;99.90;;;;;;2614846;47;20174;-80
2022/03/06 05:31:36;;;;;;;32.30;16.33;;;-0.60;99.90;;;;;;2615668;54;20155;-81
2022/03/06 05:34:02;;;;;;;31.20;17.37;;;-0.50;99.90;;;;;;2614720;47;20178;-81
2022/03/06 05:36:30;;;;;;;26.03;16.60;;;-0.50;99.90;;;;;;2616186;47;20391;-81
2022/03/06 05:38:56;;;;;;;22.20;14.30;;;;;;;;;;2616716;47;20395;-80
2022/03/06 05:41:22;;;;;;;28.20;17.80;;;-0.50;99.90;;;;;;2616408;47;20506;-81
2022/03/06 05:43:49;;;;;;;29.33;16.60;;;-0.50;99.90;;;;;;2616066;47;20394;-81
2022/03/06 05:46:14;;;;;;;27.23;17.60;;;-0.70;99.90;;;;;;2617711;31;20633;-80
2022/03/06 05:48:42;;;;;;;30.43;17.97;;;-0.70;99.90;;;;;;2615853;47;20448;-80
2022/03/06 05:51:09;;;;;;;30.70;18.47;;;-0.70;99.90;;;;;;2616690;54;20158;-80
2022/03/06 05:53:35;;;;;;;34.70;19.37;;;-0.70;99.90;;;;;;2616883;47;20483;-83
2022/03/06 05:56:00;;;;;;;34.70;18.97;;;-0.80;99.90;;;;;;2617521;54;20458;-81
2022/03/06 05:58:27;;;;;;;30.93;16.43;;;;;;;;;;2617505;47;20729;-81
2022/03/06 06:00:52;;;;;;;29.10;18.73;;;-0.90;99.90;;;;;;2615957;54;20182;-80
2022/03/06 06:03:18;;;;;;;29.07;18.50;;;-0.90;99.90;;;;;;2616597;39;20876;-82
2022/03/06 06:05:45;;;;;;;32.37;18.60;;;-1.10;99.90;;;;;;2617787;47;20527;-81
2022/03/06 06:08:11;;;;;;;27.50;18.57;;;-1.20;99.90;;;;;;2617344;54;20147;-80
2022/03/06 06:10:38;;;;;;;29.17;16.67;;;-1.40;99.90;;;;;;2617175;47;21156;-81
2022/03/06 06:13:04;;;;;;;27.97;18.60;;;-1.10;99.90;;;;;;2616346;54;20184;-80
2022/03/06 06:15:30;;;;;;;28.87;18.90;;;-1.10;99.90;;;;;;2617682;54;20399;-80
2022/03/06 06:17:56;;;;;;;33.60;18.50;;;-1.10;99.90;;;;;;2616564;54;20406;-81
2022/03/06 06:20:23;;;;;;;31.93;18.10;;;-1.10;99.90;;;;;;2615618;47;20446;-81
2022/03/06 06:22:53;;;;;;;38.00;21.20;;;-1.10;99.90;;;;;;2616768;54;20142;-82
2022/03/06 06:25:19;;;;;;;33.97;20.20;;;-1.20;99.90;;;;;;2618588;31;20939;-81
2022/03/06 06:27:45;;;;;;;31.23;17.97;;;;;;;;;;2617969;54;20419;-82
2022/03/06 06:30:13;;;;;;;29.77;19.73;;;-1.00;99.90;;;;;;2616296;47;20416;-80
2022/03/06 06:32:39;;;;;;;28.10;20.47;;;-1.00;99.90;;;;;;2618830;54;20399;-80
2022/03/06 06:35:07;;;;;;;32.80;19.70;;;-0.80;99.90;;;;;;2617849;46;20391;-81
2022/03/06 06:37:33;;;;;;;30.50;17.77;;;-0.80;99.90;;;;;;2618809;47;20655;-81
2022/03/06 06:39:59;;;;;;;29.43;18.30;;;-0.70;99.90;;;;;;2616948;54;20416;-81
2022/03/06 06:42:25;;;;;;;34.70;20.60;;;-0.70;99.90;;;;;;2617746;54;20379;-83
2022/03/06 06:44:53;;;;;;;31.50;19.10;;;-0.50;99.90;;;;;;2616937;47;20205;-82
2022/03/06 06:47:19;;;;;;;32.60;18.67;;;-0.40;99.90;;;;;;2616451;47;20434;-82
2022/03/06 06:49:46;;;;;;;35.20;19.80;;;-0.40;99.90;;;;;;2616634;47;20403;-82
2022/03/06 06:52:12;;;;;;;32.43;18.13;;;-0.20;99.90;;;;;;2617522;47;20410;-79
2022/03/06 06:54:38;;;;;;;32.47;20.13;;;-0.10;99.90;;;;;;2617647;47;20506;-81
2022/03/06 06:57:04;;;;;;;30.53;18.80;;;0.00;99.90;;;;;;2616539;47;20697;-80
2022/03/06 06:59:32;;;;;;;28.50;18.40;;;0.10;99.90;;;;;;2617527;46;20181;-80
2022/03/06 07:01:58;;;;;;;25.90;18.47;;;0.10;99.90;;;;;;2617197;54;20411;-80
2022/03/06 07:04:25;;;;;;;28.67;17.23;;;;;;;;;;2617745;39;20711;-83
2022/03/06 07:06:52;;;;;;;24.77;18.00;;;0.50;99.90;;;;;;2616306;54;20158;-81
2022/03/06 07:09:42;;;;;;;27.13;18.70;;;0.70;99.90;;;;;;2617604;54;20411;-84
2022/03/06 07:12:08;;;;;;;23.23;17.50;;;0.80;99.90;;;;;;2617224;54;20379;-80
2022/03/06 07:14:34;;;;;;;28.90;21.27;;;1.00;99.90;;;;;;2617675;39;20930;-82
2022/03/06 07:17:00;;;;;;;36.90;18.83;;;1.20;99.90;;;;;;2616921;54;20401;-81
2022/03/06 07:19:26;;;;;;;25.67;18.57;;;1.40;94.90;;;;;;2617478;39;20879;-82
2022/03/06 07:21:52;;;;;;;29.47;18.67;;;1.70;86.60;;;;;;2617266;54;20242;-81
2022/03/06 07:24:19;;;;;;;30.17;19.30;;;2.10;74.00;;;;;;2617133;39;20787;-81
2022/03/06 07:26:47;;;;;;;24.03;17.67;;;2.40;64.70;;;;;;2616010;54;20215;-81
2022/03/06 07:29:14;;;;;;;28.93;20.90;;;2.70;56.10;;;;;;2616287;39;20668;-81
2022/03/06 07:31:40;;;;;;;24.60;18.57;;;2.90;53.20;;;;;;2616880;54;20432;-79
2022/03/06 07:34:07;;;;;;;21.67;17.73;;;3.20;48.00;;;;;;2615867;54;20927;-80
2022/03/06 07:36:34;;;;;;;24.27;18.27;;;3.50;41.70;;;;;;2616804;47;20180;-80
2022/03/06 07:39:00;;;;;;;29.10;19.27;;;3.60;38.80;;;;;;2616759;47;20406;-81
2022/03/06 07:41:26;;;;;;;22.50;17.53;;;3.50;38.60;;;;;;2616237;54;20503;-82
2022/03/06 07:44:18;;;;;;;28.63;18.90;;;3.40;39.70;;;;;;2615741;47;20543;-80
2022/03/06 07:47:12;;;;;;;25.40;18.47;;;3.20;41.20;;;;;;2615125;47;20170;-81
2022/03/06 07:49:39;;;;;;;29.37;19.17;;;3.00;42.70;;;;;;2616084;54;20399;-79
2022/03/06 07:52:11;;;;;;;30.70;18.50;;;3.00;43.40;;;;;;2616096;47;20420;-84
2022/03/06 07:54:37;;;;;;;24.83;18.13;;;2.90;45.70;;;;;;2615557;47;21024;-81
2022/03/06 07:57:03;;;;;;;24.70;18.03;;;2.90;46.10;;;;;;2615588;47;20423;-81
2022/03/06 07:59:30;;;;;;;28.83;19.00;;;2.90;46.40;;;;;;2616539;54;20398;-80
2022/03/06 08:01:56;;;;;;;30.70;20.40;;;2.80;46.60;;;;;;2617142;54;20391;-79
2022/03/06 08:04:22;;;;;;;28.17;20.87;;;2.80;50.00;;;;;;2635140;36;20697;-80
2022/03/06 08:06:48;;;;;;;27.90;20.00;;;2.90;48.80;;;;;;2617413;47;20150;-80
2022/03/06 08:09:16;;;;;;;26.93;18.27;;;2.90;49.30;;;;;;2617714;54;20384;-81
2022/03/06 08:11:44;;;;;;;30.20;17.73;;;3.00;45.80;;;;;;2617783;47;20418;-80
2022/03/06 08:14:09;;;;;;;25.13;18.43;;;3.10;44.80;;;;;;2618514;54;20395;-81
2022/03/06 08:16:37;;;;;;;26.13;17.37;;;3.50;43.10;;;;;;2616239;47;21953;-81
2022/03/06 08:19:03;;;;;;;24.33;19.03;;;4.10;36.50;;;;;;2614834;54;22176;-79
2022/03/06 08:21:30;;;;;;;31.80;16.10;;;4.80;30.00;;;;;;2615809;47;20420;-81
2022/03/06 08:23:56;;;;;;;25.47;18.30;;;5.10;23.20;;;;;;2636324;36;20447;-80
2022/03/06 08:26:23;;;;;;;22.10;18.17;;;5.10;23.00;;;;;;2618280;47;20419;-82
2022/03/06 08:28:51;;;;;;;25.80;17.57;;;5.00;27.00;;;;;;2616604;54;20408;-82
2022/03/06 08:31:19;;;;;;;26.43;17.97;;;4.90;27.30;;;;;;2617008;47;20435;-79
2022/03/06 08:33:46;;;;;;;21.97;17.23;;;5.10;22.70;;;;;;2617837;54;20391;-80
2022/03/06 08:36:13;;;;;;;24.97;18.17;;;5.20;22.30;;;;;;2619240;54;20954;-80
2022/03/06 08:38:39;;;;;;;25.20;18.10;;;5.10;21.20;;;;;;2618122;51;20478;-81
2022/03/06 08:41:05;;;;;;;22.93;17.73;;;4.80;22.60;;;;;;2616263;54;20396;-79
2022/03/06 08:43:30;;;;;;;23.60;19.13;;;4.90;23.40;;;;;;2616995;39;22017;-80
2022/03/06 08:45:56;;;;;;;23.73;18.10;;;4.90;22.30;;;;;;2600905;47;20475;-83
2022/03/06 08:48:22;;;;;;;21.60;16.93;;;5.20;21.10;;;;;;2612733;47;20182;-82
2022/03/06 08:50:51;;;;;;;21.07;17.90;;;5.30;22.50;;;;;;2614775;39;20514;-85
2022/03/06 08:53:18;;;;;;;29.13;19.20;;;5.90;22.60;;;;;;2616079;39;20904;-84
2022/03/06 08:55:45;;;;;;;24.90;17.13;;;5.90;17.60;;;;;;2616039;54;20440;-82
2022/03/06 08:58:11;;;;;;;22.60;18.40;;;6.00;17.30;;;;;;2616500;39;20806;-82
2022/03/06 09:00:37;;;;;;;20.67;17.23;;;6.20;15.80;;;;;;2614373;54;20440;-82
2022/03/06 09:03:04;;;;;;;26.30;17.93;;;6.00;16.10;;;;;;2610076;54;20174;-80
2022/03/06 09:05:30;;;;;;;21.73;17.13;;;5.70;16.90;;;;;;2612697;54;20505;-83
2022/03/06 09:07:58;;;;;;;21.80;16.87;;;5.70;17.50;;;;;;2613111;54;20396;-82
2022/03/06 09:10:24;;;;;;;24.43;16.50;;;5.60;16.20;;;;;;2610437;54;21099;-82
2022/03/06 09:12:50;;;;;;;23.63;17.67;;;5.60;17.80;;;;;;2615776;54;20416;-85
2022/03/06 09:15:16;;;;;;;21.47;17.43;;;5.60;18.00;;;;;;2618480;54;20209;-83
2022/03/06 09:17:42;;;;;;;20.63;16.33;;;5.70;16.90;;;;;;2620103;54;20159;-83
2022/03/06 09:20:09;;;;;;;24.33;16.90;;;5.80;16.00;;;;;;2617977;54;20151;-83
2022/03/06 09:22:34;;;;;;;21.83;17.40;;;6.00;15.20;;;;;;2619117;54;20427;-83
2022/03/06 09:25:00;;;;;;;19.17;17.00;;;6.40;13.10;;;;;;2622240;47;20420;-84
2022/03/06 09:27:27;;;;;;;23.00;17.33;;;;;;;;;;2617880;54;20693;-84
2022/03/06 09:29:52;;;;;;;21.00;17.20;;;7.40;8.20;;;;;;2616697;54;20452;-83
2022/03/06 09:32:19;;;;;;;23.37;17.40;;;8.30;6.30;;;;;;2617459;54;20417;-84
2022/03/06 09:34:46;;;;;;;24.27;18.43;;;;;;;;;;2616091;47;20678;-85
2022/03/06 09:37:12;;;;;;;23.53;17.50;;;;;;;;;;2617138;54;20506;-85
2022/03/06 09:39:38;;;;;;;21.83;18.90;;;8.20;3.10;;;;;;2617576;39;20839;-84
2022/03/06 09:42:04;;;;;;;22.00;17.50;;;8.30;9.60;;;;;;2615960;54;20405;-83
2022/03/06 09:44:31;;;;;;;23.13;18.47;;;8.60;1.00;;;;;;2614148;54;20661;-84
2022/03/06 09:46:58;;;;;;;23.70;19.90;;;8.60;1.00;;;;;;2615467;54;20453;-83
2022/03/06 09:49:24;;;;;;;22.10;18.00;;;8.50;1.00;;;;;;2618332;54;20448;-84
2022/03/06 09:51:51;;;;;;;21.20;17.00;;;8.70;1.00;;;;;;2616057;39;20695;-83
2022/03/06 09:54:17;;;;;;;20.33;18.10;;;8.80;1.00;;;;;;2616190;54;20427;-83
2022/03/06 09:56:44;;;;;;;21.43;18.83;;;9.10;1.00;;;;;;2616735;54;20406;-84
2022/03/06 09:59:12;;;;;;;18.83;16.83;;;9.20;1.00;;;;;;2619026;54;20415;-84
2022/03/06 10:01:38;;;;;;;19.97;17.97;;;9.70;1.00;;;;;;2617662;54;20396;-85
2022/03/06 10:04:25;;;;;;;20.50;18.40;;;9.80;1.00;;;;;;2617073;47;20462;-83
2022/03/06 10:07:20;;;;;;;20.47;18.00;;;9.10;1.00;;;;;;2618733;54;20413;-83
2022/03/06 10:09:58;;;;;;;19.07;17.07;;;8.90;1.00;;;;;;2617944;54;20512;-84
2022/03/06 10:12:29;;;;;;;21.70;18.60;;;9.70;1.00;;;;;;2617951;54;21028;-84
2022/03/06 10:15:06;;;;;;;22.07;19.77;;;9.30;1.00;;;;;;2616823;54;20425;-83
2022/03/06 10:17:34;;;;;;;20.23;18.30;;;9.10;1.00;;;;;;2619582;54;20427;-84
2022/03/06 10:20:05;;;;;;;19.50;17.47;;;10.20;1.00;;;;;;2620132;39;20959;-82
2022/03/06 10:22:39;;;;;;;21.40;18.97;;;10.70;1.00;;;;;;2618295;47;20411;-84
2022/03/06 10:25:16;;;;;;;22.03;18.83;;;11.10;1.00;;;;;;2616963;54;20414;-84
2022/03/06 10:27:46;;;;;;;20.00;16.20;;;10.80;1.00;;;;;;2617634;47;20990;-84
2022/03/06 10:30:22;;;;;;;19.00;17.10;;;10.80;1.00;;;;;;2620475;54;20431;-84
2022/03/06 10:32:49;;;;;;;19.60;17.67;;;10.80;1.00;;;;;;2620688;47;20415;-82
2022/03/06 10:35:14;;;;;;;19.27;17.33;;;11.50;1.00;;;;;;2618601;54;20451;-82
2022/03/06 10:37:40;;;;;;;17.23;15.47;;;11.00;1.00;;;;;;2618367;54;20491;-85
2022/03/06 10:40:07;;;;;;;18.27;16.40;;;10.70;1.00;;;;;;2619974;47;20459;-84
2022/03/06 10:42:34;;;;;;;19.67;17.77;;;10.70;1.00;;;;;;2618776;54;20400;-84
2022/03/06 10:44:59;;;;;;;17.47;15.73;;;10.90;1.00;;;;;;2617881;54;20448;-83
2022/03/06 10:47:25;;;;;;;18.67;16.77;;;11.10;1.00;;;;;;2618626;54;20968;-83
2022/03/06 10:50:05;;;;;;;18.50;16.70;;;11.30;1.00;;;;;;2619647;54;20168;-84
2022/03/06 10:52:41;;;;;;;19.33;17.00;;;11.40;1.00;;;;;;2616980;47;20391;-84
2022/03/06 10:55:08;;;;;;;18.33;16.63;;;11.40;1.00;;;;;;2618928;54;20411;-85
2022/03/06 10:57:34;;;;;;;18.63;17.03;;;11.60;1.30;;;;;;2616703;39;20727;-84
2022/03/06 11:00:00;;;;;;;17.90;16.20;;;11.80;6.30;;;;;;2617551;54;20400;-84
2022/03/06 11:02:27;;;;;;;18.93;16.97;;;11.70;1.00;;;;;;2618375;39;20815;-84
2022/03/06 11:04:56;;;;;;;18.53;16.63;;;11.90;1.00;;;;;;2619065;54;20963;-85
2022/03/06 11:07:26;;;;;;;18.77;16.97;;;11.90;1.00;;;;;;2620880;54;20420;-85
2022/03/06 11:09:53;;;;;;;20.63;18.87;;;12.10;1.00;;;;;;2620260;47;20471;-83
2022/03/06 11:12:20;;;;;;;19.77;17.93;;;11.80;1.00;;;;;;2616653;39;20962;-84
2022/03/06 11:14:48;;;;;;;19.97;18.10;;;11.80;1.00;;;;;;2618740;54;20420;-86
2022/03/06 11:17:16;;;;;;;19.67;18.00;;;12.00;1.00;;;;;;2619785;47;20427;-82
2022/03/06 11:19:42;;;;;;;18.90;17.10;;;12.20;1.00;;;;;;2617690;54;20419;-83
2022/03/06 11:22:24;;;;;;;19.20;16.57;;;12.30;1.00;;;;;;2616434;54;20411;-83
2022/03/06 11:25:02;;;;;;;19.30;17.60;;;12.10;1.00;;;;;;2616486;47;20428;-83
2022/03/06 11:27:42;;;;;;;18.43;16.73;;;11.60;1.00;;;;;;2616878;54;20407;-82
2022/03/06 11:30:20;;;;;;;20.93;19.13;;;11.90;1.00;;;;;;2618827;54;20985;-83
2022/03/06 11:33:08;;;;;;;18.70;16.93;;;11.90;1.00;;;;;;2618994;54;20962;-82
2022/03/06 11:35:41;;;;;;;20.07;17.97;;;11.90;1.00;;;;;;2617589;54;21042;-83
2022/03/06 11:38:11;;;;;;;20.67;18.80;;;12.00;1.00;;;;;;2616788;54;20427;-84
2022/03/06 11:40:50;;;;;;;16.50;14.80;;;12.20;1.00;;;;;;2615277;47;20466;-84
2022/03/06 11:43:29;;;;;;;16.87;15.17;;;12.30;1.00;;;;;;2615818;54;20426;-84
2022/03/06 11:46:18;;;;;;;19.20;16.50;;;11.50;1.00;;;;;;2613892;54;20487;-82
2022/03/06 11:48:44;;;;;;;16.83;14.60;;;10.50;1.00;;;;;;2619111;54;20403;-83
2022/03/06 11:51:22;;;;;;;20.70;15.67;;;10.00;1.00;;;;;;2618435;39;20946;-84
2022/03/06 11:54:15;;;;;;;17.07;14.90;;;9.50;1.00;;;;;;2618940;54;20428;-84
2022/03/06 11:56:46;;;;;;;17.57;13.90;;;8.10;1.00;;;;;;2620489;47;20499;-85
2022/03/06 11:59:29;;;;;;;18.37;16.27;;;8.10;1.00;;;;;;2620538;47;20473;-84
2022/03/06 12:02:10;;;;;;;17.53;15.43;;;8.00;1.00;;;;;;2619940;54;20422;-83
2022/03/06 12:04:47;;;;;;;22.17;14.57;;;8.10;1.00;;;;;;2616588;54;20463;-83
2022/03/06 12:07:15;;;;;;;19.20;16.70;;;8.20;1.00;;;;;;2617661;54;20417;-84
2022/03/06 12:09:43;;;;;;;19.87;15.47;;;7.90;1.00;;;;;;2619323;39;20817;-83
2022/03/06 12:12:15;;;;;;;23.63;15.87;;;7.80;1.00;;;;;;2617966;54;20490;-84
2022/03/06 12:14:53;;;;;;;18.50;16.23;;;7.70;1.00;;;;;;2619132;54;20442;-83
2022/03/06 12:17:32;;;;;;;17.30;15.60;;;7.50;1.00;;;;;;2619886;54;20402;-85
2022/03/06 12:19:59;;;;;;;20.17;17.90;;;7.90;1.00;;;;;;2619016;54;20426;-85
2022/03/06 12:22:45;;;;;;;19.53;17.60;;;8.40;1.00;;;;;;2621055;51;20448;-84
2022/03/06 12:25:10;;;;;;;21.57;19.50;;;9.20;1.00;;;;;;2620226;48;20426;-84
2022/03/06 12:27:39;;;;;;;20.47;18.40;;;10.00;1.00;;;;;;2620086;47;21033;-83
2022/03/06 12:30:06;;;;;;;19.87;17.87;;;10.40;1.00;;;;;;2619747;54;20256;-83
2022/03/06 12:32:38;;;;;;;22.60;20.60;;;10.90;1.00;;;;;;2617198;54;20967;-84
2022/03/06 12:35:17;;;;;;;23.17;20.67;;;11.00;1.00;;;;;;2617385;47;20491;-83
2022/03/06 12:37:58;;;;;;;22.17;20.17;;;11.40;1.00;;;;;;2619318;39;20799;-85
2022/03/06 12:40:27;;;;;;;19.60;16.23;;;12.00;1.00;;;;;;2613838;46;20817;-81
2022/03/06 12:43:05;;;;;;;18.63;16.80;;;12.30;1.00;;;;;;2611156;54;20471;-84
2022/03/06 12:45:33;;;;;;;21.23;19.23;;;11.30;1.00;;;;;;2614157;54;20399;-84
2022/03/06 12:48:00;;;;;;;23.03;17.80;;;10.70;1.00;;;;;;2615954;54;20407;-82